Coaldale, Nevada
Current Conditions -  °F | °C
As of 5:56 PM on Friday 31 Oct 2014 (Local Time) from KTPH Reporting Station
Clear Clear  
Wind Chill: 60°   Ceiling: Unl
Heat Index: 60°   Visibility: 10mi
Dew Point: 27°   Wind: 24mph
Humidity: 28%   Direction: 170°S
Pressure: 29.79"   Gusts: 33mph
Location:  38.4847°N, 116.233°W
Report Text: KTPH 010056Z AUTO 17021G29KT 10SM CLR 16/M03 A2979 RMK AO2 PK WND 18034/0024 SLP044 T01561028
Loading
Personal Weather Stations






























Interactive Weather Map
Tropical Storm Tracking
New forecast layout! Learn more

10-Day Weather Forecast

Advertisements
Track Severe Weather on mobile